createdAt,value
2023-05-12T00:00:35.323Z,101103.38
2023-05-12T00:03:05.417Z,101108.50
2023-05-12T00:05:37.651Z,101101.78
2023-05-12T00:08:08.919Z,101093.56
2023-05-12T00:10:38.796Z,101091.16
2023-05-12T00:13:10.053Z,101089.78
2023-05-12T00:15:42.646Z,101092.88
2023-05-12T00:18:12.764Z,101079.53
2023-05-12T00:20:43.115Z,101083.41
2023-05-12T00:23:14.097Z,101079.09
2023-05-12T00:25:44.020Z,101072.91
2023-05-12T00:28:13.959Z,101070.63
2023-05-12T00:30:46.562Z,101070.13
2023-05-12T00:33:17.344Z,101067.88
2023-05-12T00:35:48.169Z,101060.59
2023-05-12T00:38:18.041Z,101067.44
2023-05-12T00:40:47.858Z,101059.31
2023-05-12T00:43:17.706Z,101062.41
2023-05-12T00:45:50.645Z,101054.28
2023-05-12T00:48:20.703Z,101061.69
2023-05-12T00:50:50.704Z,101051.91
2023-05-12T00:53:20.734Z,101057.78
2023-05-12T00:55:50.912Z,101049.81
2023-05-12T00:58:20.821Z,101044.66
2023-05-12T01:00:54.880Z,101049.59
2023-05-12T01:03:25.300Z,101052.56
2023-05-12T01:05:59.458Z,101046.44
2023-05-12T01:08:30.064Z,101052.78
2023-05-12T01:10:59.848Z,101048.91
2023-05-12T01:13:30.561Z,101041.63
2023-05-12T01:16:06.111Z,101039.38
2023-05-12T01:18:38.836Z,101045.50
2023-05-12T01:21:09.567Z,101039.13
2023-05-12T01:23:44.589Z,101037.97
2023-05-12T01:26:17.143Z,101042.75
2023-05-12T01:28:50.728Z,101033.91
2023-05-12T01:31:21.251Z,101038.66
2023-05-12T01:33:51.272Z,101044.25
2023-05-12T01:36:21.168Z,101030.25
2023-05-12T01:38:50.962Z,101029.59
2023-05-12T01:41:23.699Z,101030.50
2023-05-12T01:43:53.488Z,101028.22
2023-05-12T01:46:23.519Z,101028.69
2023-05-12T01:48:53.337Z,101020.47
2023-05-12T01:51:23.614Z,101023.56
2023-05-12T01:53:53.382Z,101029.81
2023-05-12T01:56:26.739Z,101022.41
2023-05-12T01:58:56.652Z,101026.28
2023-05-12T02:01:29.255Z,101036.88
2023-05-12T02:03:59.350Z,101042.34
2023-05-12T02:06:29.585Z,101043.94
2023-05-12T02:08:59.421Z,101042.34
2023-05-12T02:11:32.053Z,101044.75
2023-05-12T02:14:01.934Z,101039.41
2023-05-12T02:16:31.967Z,101041.44
2023-05-12T02:19:01.872Z,101042.72
2023-05-12T02:21:31.728Z,101040.78
2023-05-12T02:24:01.630Z,101037.34
2023-05-12T02:26:34.083Z,101048.41
2023-05-12T02:29:03.889Z,101043.03
2023-05-12T02:31:33.776Z,101050.91
2023-05-12T02:34:06.329Z,101040.44
2023-05-12T02:36:36.632Z,101045.66
2023-05-12T02:39:06.620Z,101041.91
2023-05-12T02:41:39.188Z,101045.09
2023-05-12T02:44:09.031Z,101052.16
2023-05-12T02:46:38.922Z,101059.69
2023-05-12T02:49:08.857Z,101054.22
2023-05-12T02:51:40.898Z,101059.47
2023-05-12T02:54:10.870Z,101061.75
2023-05-12T02:56:43.342Z,101067.22
2023-05-12T02:59:13.144Z,101076.09
2023-05-12T03:01:43.654Z,101071.78
2023-05-12T03:04:13.683Z,101063.69
2023-05-12T03:06:43.732Z,101070.41
2023-05-12T03:09:13.673Z,101066.78
2023-05-12T03:11:46.398Z,101072.56
2023-05-12T03:14:16.220Z,101078.28
2023-05-12T03:16:46.197Z,101072.47
2023-05-12T03:19:16.122Z,101069.72
2023-05-12T03:21:46.111Z,101076.34
2023-05-12T03:24:15.987Z,101070.88
2023-05-12T03:26:48.789Z,101079.28
2023-05-12T03:29:18.598Z,101075.88
2023-05-12T03:31:48.946Z,101074.72
2023-05-12T03:34:18.924Z,101074.94
2023-05-12T03:36:48.886Z,101081.41
2023-05-12T03:39:18.896Z,101087.22
2023-05-12T03:41:51.410Z,101087.69
2023-05-12T03:44:22.014Z,101088.94
2023-05-12T03:46:52.169Z,101091.00
2023-05-12T03:49:22.184Z,101093.63
2023-05-12T03:51:52.304Z,101092.00
2023-05-12T03:54:22.149Z,101093.97
2023-05-12T03:56:55.304Z,101095.91
2023-05-12T03:59:25.160Z,101094.41
2023-05-12T04:01:58.213Z,101100.72
2023-05-12T04:04:27.995Z,101102.31
2023-05-12T04:06:57.906Z,101107.63
2023-05-12T04:09:28.299Z,101111.03
2023-05-12T04:12:01.270Z,101113.31
2023-05-12T04:14:41.776Z,101115.25
2023-05-12T04:17:14.104Z,101117.97
2023-05-12T04:19:44.064Z,101118.31
2023-05-12T04:22:14.012Z,101119.91
2023-05-12T04:24:44.114Z,101123.00
2023-05-12T04:27:17.527Z,101126.88
2023-05-12T04:29:47.411Z,101129.13
2023-05-12T04:32:17.425Z,101132.91
2023-05-12T04:34:48.338Z,101132.09
2023-05-12T04:37:18.177Z,101130.97
2023-05-12T04:39:48.479Z,101142.34
2023-05-12T04:42:21.042Z,101146.56
2023-05-12T04:44:50.899Z,101144.63
2023-05-12T04:47:20.977Z,101154.09
2023-05-12T04:49:50.895Z,101151.00
2023-05-12T04:52:21.580Z,101158.06
2023-05-12T04:54:51.441Z,101161.94
2023-05-12T04:57:24.012Z,101167.41
2023-05-12T04:59:53.865Z,101172.53
2023-05-12T05:02:23.854Z,101175.41
2023-05-12T05:04:53.928Z,101180.19
2023-05-12T05:07:23.872Z,101186.63
2023-05-12T05:09:54.024Z,101185.97
2023-05-12T05:12:26.565Z,101201.25
2023-05-12T05:14:56.401Z,101206.38
2023-05-12T05:17:26.471Z,101215.03
2023-05-12T05:19:59.665Z,101219.03
2023-05-12T05:22:30.174Z,101216.78
2023-05-12T05:25:00.223Z,101215.50
2023-05-12T05:27:32.615Z,101224.50
2023-05-12T05:30:02.512Z,101228.53
2023-05-12T05:32:32.560Z,101233.75
2023-05-12T05:35:02.922Z,101235.03
2023-05-12T05:37:32.975Z,101235.94
2023-05-12T05:40:02.823Z,101239.03
2023-05-12T05:42:35.353Z,101238.25
2023-05-12T05:45:05.223Z,101243.03
2023-05-12T05:47:36.396Z,101246.25
2023-05-12T05:50:07.037Z,101255.59
2023-05-12T05:52:36.991Z,101257.84
2023-05-12T05:55:08.138Z,101257.38
2023-05-12T05:57:40.694Z,101261.59
2023-05-12T06:00:14.615Z,101260.13
2023-05-12T06:02:44.681Z,101259.94
2023-05-12T06:05:14.805Z,101265.06
2023-05-12T06:07:44.677Z,101266.66
2023-05-12T06:10:14.508Z,101261.19
2023-05-12T06:12:47.112Z,101274.59
2023-05-12T06:15:17.134Z,101274.94
2023-05-12T06:17:48.892Z,101280.75
2023-05-12T06:20:18.785Z,101279.75
2023-05-12T06:22:48.689Z,101287.06
2023-05-12T06:25:18.833Z,101281.97
2023-05-12T06:27:54.163Z,101289.44
2023-05-12T06:30:24.146Z,101281.72
2023-05-12T06:32:54.094Z,101287.19
2023-05-12T06:35:24.014Z,101290.66
2023-05-12T06:37:53.886Z,101296.59
2023-05-12T06:40:23.904Z,101293.88
2023-05-12T06:42:56.336Z,101296.84
2023-05-12T06:45:26.389Z,101293.78
2023-05-12T06:47:57.962Z,101295.84
2023-05-12T06:50:27.953Z,101295.69
2023-05-12T06:52:57.830Z,101294.22
2023-05-12T06:55:27.844Z,101302.81
2023-05-12T06:58:00.274Z,101309.66
2023-05-12T07:00:30.295Z,101315.13
2023-05-12T07:03:00.378Z,101308.50
2023-05-12T07:05:30.284Z,101316.38
2023-05-12T07:08:00.153Z,101324.72
2023-05-12T07:10:30.105Z,101320.84
2023-05-12T07:13:02.702Z,101324.84
2023-05-12T07:15:33.053Z,101314.66
2023-05-12T07:18:03.063Z,101327.69
2023-05-12T07:20:32.934Z,101333.84
2023-05-12T07:23:02.768Z,101327.25
2023-05-12T07:25:32.760Z,101327.00
2023-05-12T07:28:05.253Z,101331.91
2023-05-12T07:30:35.178Z,101332.13
2023-05-12T07:33:05.049Z,101336.81
2023-05-12T07:35:35.454Z,101347.34
2023-05-12T07:38:06.541Z,101338.31
2023-05-12T07:40:36.332Z,101341.72
2023-05-12T07:43:08.789Z,101338.19
2023-05-12T07:45:38.703Z,101350.75
2023-05-12T07:48:09.065Z,101344.81
2023-05-12T07:50:39.088Z,101345.50
2023-05-12T07:53:11.141Z,101349.16
2023-05-12T07:55:41.487Z,101350.88
2023-05-12T07:58:14.002Z,101362.66
2023-05-12T08:00:44.974Z,101357.16
2023-05-12T08:03:16.598Z,101354.88
2023-05-12T08:05:46.659Z,101357.38
2023-05-12T08:08:16.891Z,101355.09
2023-05-12T08:10:46.949Z,101365.41
2023-05-12T08:13:19.536Z,101374.19
2023-05-12T08:15:49.447Z,101369.97
2023-05-12T08:18:19.345Z,101369.38
2023-05-12T08:20:49.699Z,101369.94
2023-05-12T08:23:20.143Z,101372.25
2023-05-12T08:25:50.572Z,101375.09
2023-05-12T08:28:23.174Z,101375.88
2023-05-12T08:30:53.232Z,101367.66
2023-05-12T08:33:23.319Z,101371.56
2023-05-12T08:35:53.498Z,101373.97
2023-05-12T08:38:23.794Z,101369.28
2023-05-12T08:41:07.071Z,101383.00
2023-05-12T08:43:45.083Z,101376.47
2023-05-12T08:46:15.307Z,101379.69
2023-05-12T08:48:48.926Z,101384.81
2023-05-12T08:51:21.536Z,101382.97
2023-05-12T08:53:53.064Z,101382.66
2023-05-12T08:59:03.860Z,101398.28
2023-05-12T09:01:37.982Z,101395.31
2023-05-12T09:04:11.592Z,101400.69
2023-05-12T09:06:41.852Z,101400.38
2023-05-12T09:09:18.873Z,101406.06
2023-05-12T09:11:57.000Z,101398.50
2023-05-12T09:14:36.343Z,101399.41
2023-05-12T09:17:09.519Z,101409.47
2023-05-12T09:19:43.014Z,101403.09
2023-05-12T09:22:18.579Z,101404.44
2023-05-12T09:24:48.868Z,101409.34
2023-05-12T09:27:29.260Z,101413.34
2023-05-12T09:30:12.017Z,101409.09
2023-05-12T09:32:46.530Z,101411.25
2023-05-12T09:35:24.655Z,101411.25
2023-05-12T09:38:04.237Z,101415.00
2023-05-12T09:40:39.204Z,101413.25
2023-05-12T09:43:12.544Z,101411.88
2023-05-12T09:45:56.741Z,101407.38
2023-05-12T09:48:30.963Z,101415.94
2023-05-12T09:51:12.983Z,101414.97
2023-05-12T09:53:51.153Z,101420.22
2023-05-12T09:56:23.087Z,101416.94
2023-05-12T09:59:04.169Z,101413.25
2023-05-12T10:01:36.998Z,101415.94
2023-05-12T10:04:10.636Z,101418.44
2023-05-12T10:06:47.588Z,101413.13
2023-05-12T10:09:26.627Z,101419.66
2023-05-12T10:11:56.798Z,101426.75
2023-05-12T10:14:27.104Z,101417.53
2023-05-12T10:17:00.570Z,101424.84
2023-05-12T10:19:33.305Z,101416.03
2023-05-12T10:22:04.766Z,101423.69
2023-05-12T10:24:36.858Z,101422.94
2023-05-12T10:27:08.675Z,101420.72
2023-05-12T10:29:40.497Z,101427.56
2023-05-12T10:32:14.791Z,101418.69
2023-05-12T10:34:45.324Z,101421.59
2023-05-12T10:37:16.124Z,101429.56
2023-05-12T10:39:55.068Z,101428.16
2023-05-12T10:42:27.316Z,101427.63
2023-05-12T10:44:59.638Z,101425.34
2023-05-12T10:47:40.134Z,101428.41
2023-05-12T10:50:17.758Z,101430.97
2023-05-12T10:52:56.728Z,101424.38
2023-05-12T10:55:34.728Z,101427.78
2023-05-12T10:58:09.796Z,101428.97
2023-05-12T11:00:48.554Z,101430.78
2023-05-12T11:03:28.513Z,101419.94
2023-05-12T11:06:03.013Z,101425.34
2023-05-12T11:08:44.124Z,101414.69
2023-05-12T11:11:22.457Z,101426.19
2023-05-12T11:13:52.525Z,101426.31
2023-05-12T11:16:29.022Z,101428.06
2023-05-12T11:19:09.020Z,101425.78
2023-05-12T11:21:40.107Z,101426.41
2023-05-12T11:24:14.864Z,101428.53
2023-05-12T11:26:44.723Z,101434.19
2023-05-12T11:29:14.586Z,101438.69
2023-05-12T11:31:44.468Z,101433.31
2023-05-12T11:34:17.067Z,101437.66
2023-05-12T11:36:47.550Z,101433.09
2023-05-12T11:39:22.230Z,101430.31
2023-05-12T11:42:02.047Z,101435.44
2023-05-12T11:44:35.763Z,101427.56
2023-05-12T11:47:14.755Z,101433.88
2023-05-12T11:49:54.869Z,101432.28
2023-05-12T11:52:26.755Z,101438.78
2023-05-12T11:55:01.732Z,101437.34
2023-05-12T11:57:33.635Z,101433.22
2023-05-12T12:00:05.301Z,101435.31
2023-05-12T12:02:36.165Z,101432.31
2023-05-12T12:05:21.301Z,101437.53
2023-05-12T12:07:51.546Z,101437.25
2023-05-12T12:10:22.238Z,101439.00
2023-05-12T12:12:52.095Z,101438.72
2023-05-12T12:15:22.113Z,101434.44
2023-05-12T12:17:52.128Z,101443.22
2023-05-12T12:20:25.329Z,101447.03
2023-05-12T12:22:55.998Z,101446.31
2023-05-12T12:25:26.485Z,101448.69
2023-05-12T12:27:56.375Z,101451.03
2023-05-12T12:30:26.301Z,101455.34
2023-05-12T12:32:56.337Z,101454.13
2023-05-12T12:35:29.086Z,101456.09
2023-05-12T12:37:58.960Z,101450.56
2023-05-12T12:40:31.554Z,101458.44
2023-05-12T12:43:01.822Z,101456.09
2023-05-12T12:45:31.676Z,101455.72
2023-05-12T12:48:03.959Z,101464.72
2023-05-12T12:50:37.897Z,101448.50
2023-05-12T12:53:07.964Z,101456.34
2023-05-12T12:55:38.017Z,101455.03
2023-05-12T12:58:08.184Z,101447.22
2023-05-12T13:00:38.108Z,101456.72
2023-05-12T13:03:08.443Z,101448.47
2023-05-12T13:05:40.995Z,101449.38
2023-05-12T13:08:11.051Z,101442.41
2023-05-12T13:10:42.220Z,101444.88
2023-05-12T13:13:12.302Z,101437.00
2023-05-12T13:15:42.716Z,101438.56
2023-05-12T13:18:12.694Z,101433.09
2023-05-12T13:20:45.820Z,101435.47
2023-05-12T13:23:15.778Z,101431.63
2023-05-12T13:25:46.686Z,101430.50
2023-05-12T13:28:16.587Z,101428.59
2023-05-12T13:30:46.922Z,101434.13
2023-05-12T13:33:16.994Z,101425.84
2023-05-12T13:35:49.848Z,101421.06
2023-05-12T13:38:20.048Z,101419.09
2023-05-12T13:40:50.227Z,101422.66
2023-05-12T13:43:20.119Z,101415.94
2023-05-12T13:45:53.599Z,101421.47
2023-05-12T13:48:23.438Z,101416.00
2023-05-12T13:50:56.057Z,101412.53
2023-05-12T13:53:25.885Z,101414.97
2023-05-12T13:55:55.786Z,101409.06
2023-05-12T13:58:25.692Z,101403.19
2023-05-12T14:00:55.867Z,101399.69
2023-05-12T14:03:25.652Z,101393.44
2023-05-12T14:06:01.027Z,101388.72
2023-05-12T14:08:31.541Z,101382.38
2023-05-12T14:11:01.601Z,101386.38
2023-05-12T14:13:31.545Z,101376.91
2023-05-12T14:16:21.562Z,101384.47
2023-05-12T14:18:53.625Z,101382.53
2023-05-12T14:21:26.146Z,101386.47
2023-05-12T14:23:56.291Z,101384.94
2023-05-12T14:26:27.747Z,101390.19
2023-05-12T14:28:57.754Z,101397.75
2023-05-12T14:31:28.434Z,101393.78
2023-05-12T14:34:00.968Z,101396.94
2023-05-12T14:36:33.453Z,101399.66
2023-05-12T14:39:03.951Z,101402.78
2023-05-12T14:41:33.907Z,101397.59
2023-05-12T14:44:05.342Z,101406.34
2023-05-12T14:46:35.218Z,101408.31
2023-05-12T14:49:10.749Z,101412.38
2023-05-12T14:51:43.665Z,101404.84
2023-05-12T14:54:24.792Z,101428.09
2023-05-12T14:56:56.730Z,101444.13
2023-05-12T14:59:26.711Z,101429.75
2023-05-12T15:02:02.072Z,101435.22
2023-05-12T15:04:32.597Z,101437.59
2023-05-12T15:07:05.279Z,101434.50
2023-05-12T15:09:35.108Z,101436.13
2023-05-12T15:12:09.325Z,101436.88
2023-05-12T15:14:40.779Z,101437.56
2023-05-12T15:17:10.658Z,101436.63
2023-05-12T15:19:40.568Z,101435.69
2023-05-12T15:22:13.134Z,101432.34
2023-05-12T15:24:42.975Z,101420.31
2023-05-12T15:27:12.968Z,101421.00
2023-05-12T15:29:44.048Z,101415.88
2023-05-12T15:32:13.920Z,101409.88
2023-05-12T15:34:43.921Z,101412.19
2023-05-12T15:37:19.329Z,101418.56
2023-05-12T15:39:51.340Z,101433.56
2023-05-12T15:42:26.169Z,101442.19
2023-05-12T15:44:59.791Z,101452.78
2023-05-12T15:47:30.159Z,101463.31
2023-05-12T15:50:00.076Z,101473.13
2023-05-12T15:52:32.664Z,101487.22
2023-05-12T15:55:04.028Z,101486.59
2023-05-12T15:57:34.161Z,101477.88
2023-05-12T16:00:04.114Z,101477.81
2023-05-12T16:02:34.082Z,101454.91
2023-05-12T16:05:04.459Z,101464.34
2023-05-12T16:07:36.928Z,101469.31
2023-05-12T16:10:07.755Z,101467.63
2023-05-12T16:12:37.697Z,101487.13
2023-05-12T16:15:08.446Z,101488.03
2023-05-12T16:17:38.446Z,101485.59
2023-05-12T16:20:10.592Z,101485.09
2023-05-12T16:22:43.157Z,101483.44
2023-05-12T16:25:13.016Z,101481.41
2023-05-12T16:27:42.969Z,101477.50
2023-05-12T16:30:13.960Z,101472.69
2023-05-12T16:32:43.868Z,101471.75
2023-05-12T16:35:16.894Z,101470.13
2023-05-12T16:37:49.393Z,101457.50
2023-05-12T16:40:19.670Z,101462.16
2023-05-12T16:42:49.541Z,101460.13
2023-05-12T16:45:20.971Z,101457.28
2023-05-12T16:47:51.378Z,101450.28
2023-05-12T16:50:22.089Z,101454.97
2023-05-12T16:52:54.898Z,101454.91
2023-05-12T16:55:25.102Z,101454.34
2023-05-12T16:57:54.970Z,101451.13
2023-05-12T17:00:24.957Z,101457.69
2023-05-12T17:02:54.862Z,101453.75
2023-05-12T17:05:25.032Z,101453.75
2023-05-12T17:07:57.582Z,101452.50
2023-05-12T17:10:27.472Z,101464.06
2023-05-12T17:12:58.652Z,101458.03
2023-05-12T17:15:28.663Z,101458.81
2023-05-12T17:17:58.617Z,101459.69
2023-05-12T17:20:28.602Z,101464.84
2023-05-12T17:23:01.683Z,101463.91
2023-05-12T17:25:32.145Z,101463.63
2023-05-12T17:28:01.956Z,101463.03
2023-05-12T17:30:32.145Z,101465.78
2023-05-12T17:33:02.263Z,101469.41
2023-05-12T17:35:32.917Z,101469.56
2023-05-12T17:38:05.445Z,101471.59
2023-05-12T17:40:35.429Z,101474.78
2023-05-12T17:43:05.498Z,101476.69
2023-05-12T17:45:35.559Z,101478.56
2023-05-12T17:48:06.476Z,101482.47
2023-05-12T17:50:36.346Z,101479.63
2023-05-12T17:53:09.042Z,101478.78
2023-05-12T17:55:39.501Z,101477.25
2023-05-12T17:58:09.491Z,101481.31
2023-05-12T18:00:39.399Z,101477.31
2023-05-12T18:03:12.206Z,101481.94
2023-05-12T18:05:42.433Z,101486.56
2023-05-12T18:08:14.978Z,101493.56
2023-05-12T18:10:44.952Z,101487.88
2023-05-12T18:13:15.703Z,101500.97
2023-05-12T18:15:45.873Z,101499.63
2023-05-12T18:18:15.910Z,101503.13
2023-05-12T18:20:46.158Z,101501.44
2023-05-12T18:23:18.802Z,101499.72
2023-05-12T18:25:48.666Z,101505.59
2023-05-12T18:28:18.578Z,101512.41
2023-05-12T18:30:48.429Z,101507.56
2023-05-12T18:33:18.379Z,101497.25
2023-05-12T18:35:48.329Z,101500.41
2023-05-12T18:38:21.358Z,101511.00
2023-05-12T18:40:51.394Z,101515.16
2023-05-12T18:43:21.713Z,101512.69
2023-05-12T18:45:51.825Z,101523.22
2023-05-12T18:48:21.709Z,101513.38
2023-05-12T18:50:52.025Z,101517.28
2023-05-12T18:53:24.976Z,101519.72
2023-05-12T18:55:54.992Z,101515.31
2023-05-12T18:58:25.296Z,101517.63
2023-05-12T19:00:57.238Z,101527.00
2023-05-12T19:03:31.278Z,101528.94
2023-05-12T19:06:01.397Z,101541.91
2023-05-12T19:08:33.956Z,101536.31
2023-05-12T19:11:04.216Z,101535.41
2023-05-12T19:13:34.238Z,101545.41
2023-05-12T19:16:04.319Z,101550.03
2023-05-12T19:18:34.675Z,101553.00
2023-05-12T19:21:05.213Z,101544.53
2023-05-12T19:23:37.789Z,101549.09
2023-05-12T19:26:09.199Z,101554.25
2023-05-12T19:28:39.251Z,101558.06
2023-05-12T19:31:09.290Z,101562.41
2023-05-12T19:33:39.289Z,101565.97
2023-05-12T19:36:11.403Z,101568.34
2023-05-12T19:38:44.680Z,101560.81
2023-05-12T19:41:14.656Z,101562.28
2023-05-12T19:43:44.843Z,101561.03
2023-05-12T19:46:15.946Z,101564.94
2023-05-12T19:48:46.391Z,101571.38
2023-05-12T19:51:16.306Z,101564.00
2023-05-12T19:53:48.908Z,101573.50
2023-05-12T19:56:19.194Z,101573.84
2023-05-12T19:58:49.217Z,101581.28
2023-05-12T20:01:19.320Z,101578.47
2023-05-12T20:03:49.305Z,101584.97
2023-05-12T20:06:20.624Z,101581.31
2023-05-12T20:08:53.044Z,101586.59
2023-05-12T20:11:22.940Z,101583.63
2023-05-12T20:13:53.155Z,101590.97
2023-05-12T20:16:23.207Z,101600.25
2023-05-12T20:18:55.049Z,101601.63
2023-05-12T20:21:25.026Z,101603.00
2023-05-12T20:23:57.508Z,101598.91
2023-05-12T20:26:27.457Z,101602.66
2023-05-12T20:28:57.421Z,101601.41
2023-05-12T20:31:27.548Z,101608.69
2023-05-12T20:33:58.130Z,101606.09
2023-05-12T20:36:28.019Z,101609.53
2023-05-12T20:39:00.930Z,101610.00
2023-05-12T20:41:31.357Z,101610.00
2023-05-12T20:44:01.296Z,101607.72
2023-05-12T20:46:34.499Z,101608.06
2023-05-12T20:49:06.329Z,101611.16
2023-05-12T20:51:36.282Z,101603.13
2023-05-12T20:54:09.230Z,101609.06
2023-05-12T20:56:39.128Z,101608.34
2023-05-12T20:59:09.299Z,101607.84
2023-05-12T21:01:39.266Z,101613.34
2023-05-12T21:04:09.180Z,101609.44
2023-05-12T21:06:39.405Z,101612.38
2023-05-12T21:09:12.062Z,101613.50
2023-05-12T21:11:42.149Z,101620.47
2023-05-12T21:14:12.353Z,101618.06
2023-05-12T21:16:42.312Z,101610.72
2023-05-12T21:19:12.357Z,101617.53
2023-05-12T21:21:42.432Z,101614.34
2023-05-12T21:24:14.943Z,101612.28
2023-05-12T21:26:44.770Z,101616.47
2023-05-12T21:29:14.657Z,101617.94
2023-05-12T21:31:44.600Z,101621.34
2023-05-12T21:34:14.661Z,101620.88
2023-05-12T21:36:44.636Z,101628.59
2023-05-12T21:39:17.340Z,101628.47
2023-05-12T21:41:47.455Z,101635.06
2023-05-12T21:44:17.396Z,101632.69
2023-05-12T21:46:47.278Z,101627.53
2023-05-12T21:49:17.256Z,101633.81
2023-05-12T21:51:47.212Z,101637.69
2023-05-12T21:54:19.725Z,101641.56
2023-05-12T21:56:50.750Z,101641.09
2023-05-12T21:59:20.963Z,101638.22
2023-05-12T22:01:50.910Z,101639.88
2023-05-12T22:04:20.902Z,101650.06
2023-05-12T22:06:51.065Z,101646.56
2023-05-12T22:09:23.673Z,101645.66
2023-05-12T22:11:53.711Z,101641.78
2023-05-12T22:14:23.857Z,101642.91
2023-05-12T22:16:53.991Z,101643.22
2023-05-12T22:19:23.988Z,101651.47
2023-05-12T22:21:55.087Z,101664.41
2023-05-12T22:24:27.614Z,101660.06
2023-05-12T22:26:57.530Z,101666.81
2023-05-12T22:29:27.526Z,101662.13
2023-05-12T22:31:57.370Z,101662.59
2023-05-12T22:34:29.656Z,101651.19
2023-05-12T22:36:59.722Z,101664.25
2023-05-12T22:39:32.234Z,101655.59
2023-05-12T22:42:03.387Z,101658.06
2023-05-12T22:44:33.400Z,101665.28
2023-05-12T22:47:03.389Z,101659.69
2023-05-12T22:49:33.278Z,101667.72
2023-05-12T22:52:03.158Z,101662.44
2023-05-12T22:54:36.016Z,101665.31
2023-05-12T22:57:06.074Z,101670.63
2023-05-12T22:59:36.043Z,101671.75
2023-05-12T23:02:05.948Z,101663.88
2023-05-12T23:04:36.137Z,101663.75
2023-05-12T23:07:08.914Z,101653.44
2023-05-12T23:09:41.679Z,101661.97
2023-05-12T23:12:12.047Z,101664.22
2023-05-12T23:14:41.910Z,101660.19
2023-05-12T23:17:11.968Z,101661.97
2023-05-12T23:19:41.796Z,101666.16
2023-05-12T23:22:11.695Z,101661.00
2023-05-12T23:24:44.477Z,101663.59
2023-05-12T23:27:14.468Z,101663.44
2023-05-12T23:29:44.340Z,101665.53
2023-05-12T23:32:14.322Z,101660.53
2023-05-12T23:34:44.926Z,101653.31
2023-05-12T23:37:14.775Z,101643.81
2023-05-12T23:39:49.251Z,101648.00
2023-05-12T23:42:19.581Z,101635.81
2023-05-12T23:44:49.446Z,101643.50
2023-05-12T23:47:19.767Z,101644.16
2023-05-12T23:49:49.590Z,101637.88
2023-05-12T23:52:19.491Z,101644.47
2023-05-12T23:54:52.000Z,101640.44
2023-05-12T23:57:22.157Z,101650.91
2023-05-12T23:59:52.075Z,101641.41
